createdAt,value
2023-05-12T00:02:14.655Z,100.00
2023-05-12T00:04:42.347Z,100.00
2023-05-12T00:07:09.795Z,100.00
2023-05-12T00:09:38.246Z,100.00
2023-05-12T00:12:06.026Z,100.00
2023-05-12T00:14:33.273Z,100.00
2023-05-12T00:17:00.795Z,100.00
2023-05-12T00:19:28.048Z,100.00
2023-05-12T00:21:55.304Z,100.00
2023-05-12T00:24:22.679Z,100.00
2023-05-12T00:26:49.946Z,100.00
2023-05-12T00:29:18.367Z,100.00
2023-05-12T00:31:45.850Z,100.00
2023-05-12T00:34:13.156Z,100.00
2023-05-12T00:36:40.412Z,100.00
2023-05-12T00:39:07.976Z,100.00
2023-05-12T00:41:35.437Z,100.00
2023-05-12T00:44:02.685Z,100.00
2023-05-12T00:46:31.309Z,100.00
2023-05-12T00:48:59.855Z,100.00
2023-05-12T00:51:28.386Z,100.00
2023-05-12T00:53:57.444Z,100.00
2023-05-12T00:56:26.771Z,100.00
2023-05-12T00:58:54.069Z,100.00
2023-05-12T01:01:21.838Z,100.00
2023-05-12T01:03:53.206Z,100.00
2023-05-12T01:06:38.707Z,100.00
2023-05-12T01:09:08.695Z,100.00
2023-05-12T01:11:36.431Z,100.00
2023-05-12T01:14:04.814Z,100.00
2023-05-12T01:16:41.172Z,100.00
2023-05-12T01:19:36.579Z,100.00
2023-05-12T01:22:04.369Z,100.00
2023-05-12T01:24:36.888Z,100.00
2023-05-12T01:27:05.511Z,100.00
2023-05-12T01:29:33.641Z,100.00
2023-05-12T01:32:03.559Z,100.00
2023-05-12T01:34:34.580Z,100.00
2023-05-12T01:37:02.541Z,100.00
2023-05-12T01:39:30.498Z,100.00
2023-05-12T01:41:58.486Z,100.00
2023-05-12T01:44:26.120Z,100.00
2023-05-12T01:46:53.446Z,100.00
2023-05-12T01:49:22.294Z,100.00
2023-05-12T01:51:50.343Z,100.00
2023-05-12T01:54:23.677Z,100.00
2023-05-12T01:56:51.138Z,100.00
2023-05-12T01:59:18.457Z,100.00
2023-05-12T02:01:45.958Z,100.00
2023-05-12T02:04:16.906Z,100.00
2023-05-12T02:06:46.374Z,100.00
2023-05-12T02:09:13.721Z,100.00
2023-05-12T02:11:41.810Z,100.00
2023-05-12T02:14:09.760Z,100.00
2023-05-12T02:16:38.133Z,100.00
2023-05-12T02:19:05.828Z,100.00
2023-05-12T02:21:33.459Z,100.00
2023-05-12T02:24:00.845Z,100.00
2023-05-12T02:26:28.482Z,100.00
2023-05-12T02:28:56.383Z,100.00
2023-05-12T02:31:24.129Z,100.00
2023-05-12T02:33:53.580Z,100.00
2023-05-12T02:36:21.089Z,100.00
2023-05-12T02:38:48.521Z,100.00
2023-05-12T02:41:16.330Z,100.00
2023-05-12T02:43:44.079Z,100.00
2023-05-12T02:46:12.025Z,100.00
2023-05-12T02:48:39.836Z,100.00
2023-05-12T02:51:07.337Z,100.00
2023-05-12T02:53:34.680Z,100.00
2023-05-12T02:56:02.010Z,100.00
2023-05-12T02:58:29.764Z,100.00
2023-05-12T03:01:09.300Z,100.00
2023-05-12T03:03:37.485Z,100.00
2023-05-12T03:06:06.126Z,100.00
2023-05-12T03:08:33.761Z,100.00
2023-05-12T03:11:01.247Z,100.00
2023-05-12T03:13:31.391Z,100.00
2023-05-12T03:16:01.751Z,100.00
2023-05-12T03:18:32.092Z,100.00
2023-05-12T03:20:59.646Z,100.00
2023-05-12T03:23:27.336Z,100.00
2023-05-12T03:25:55.771Z,100.00
2023-05-12T03:28:26.195Z,100.00
2023-05-12T03:30:54.060Z,100.00
2023-05-12T03:33:21.841Z,100.00
2023-05-12T03:35:51.792Z,100.00
2023-05-12T03:38:20.202Z,100.00
2023-05-12T03:40:52.654Z,100.00
2023-05-12T03:43:21.418Z,100.00
2023-05-12T03:45:49.951Z,100.00
2023-05-12T03:48:17.460Z,100.00
2023-05-12T03:50:44.762Z,100.00
2023-05-12T03:53:12.055Z,100.00
2023-05-12T03:55:39.572Z,100.00
2023-05-12T03:58:08.041Z,100.00
2023-05-12T04:00:38.897Z,100.00
2023-05-12T04:03:08.445Z,100.00
2023-05-12T04:05:39.620Z,100.00
2023-05-12T04:08:07.187Z,100.00
2023-05-12T04:10:42.390Z,100.00
2023-05-12T04:13:09.661Z,100.00
2023-05-12T04:15:37.320Z,100.00
2023-05-12T04:18:04.622Z,100.00
2023-05-12T04:20:31.966Z,100.00
2023-05-12T04:22:59.393Z,100.00
2023-05-12T04:25:26.918Z,100.00
2023-05-12T04:27:54.193Z,100.00
2023-05-12T04:30:22.068Z,100.00
2023-05-12T04:32:50.416Z,100.00
2023-05-12T04:35:17.699Z,100.00
2023-05-12T04:37:45.154Z,100.00
2023-05-12T04:40:12.736Z,100.00
2023-05-12T04:42:40.298Z,100.00
2023-05-12T04:45:11.039Z,100.00
2023-05-12T04:47:39.451Z,100.00
2023-05-12T04:50:07.478Z,100.00
2023-05-12T04:52:34.663Z,100.00
2023-05-12T04:55:02.518Z,100.00
2023-05-12T04:57:29.862Z,100.00
2023-05-12T04:59:59.284Z,100.00
2023-05-12T05:02:29.678Z,100.00
2023-05-12T05:04:57.447Z,100.00
2023-05-12T05:07:25.640Z,100.00
2023-05-12T05:09:55.014Z,100.00
2023-05-12T05:12:22.465Z,100.00
2023-05-12T05:14:49.921Z,100.00
2023-05-12T05:17:17.786Z,100.00
2023-05-12T05:19:57.333Z,100.00
2023-05-12T05:22:28.743Z,100.00
2023-05-12T05:24:56.373Z,100.00
2023-05-12T05:27:23.835Z,100.00
2023-05-12T05:29:51.608Z,100.00
2023-05-12T05:32:18.911Z,100.00
2023-05-12T05:34:46.350Z,100.00
2023-05-12T05:37:13.647Z,100.00
2023-05-12T05:39:41.268Z,100.00
2023-05-12T05:42:08.775Z,100.00
2023-05-12T05:44:36.623Z,100.00
2023-05-12T05:47:05.710Z,100.00
2023-05-12T05:49:33.708Z,100.00
2023-05-12T05:52:02.080Z,100.00
2023-05-12T05:54:29.463Z,100.00
2023-05-12T05:56:56.818Z,100.00
2023-05-12T05:59:24.473Z,100.00
2023-05-12T06:01:51.992Z,100.00
2023-05-12T06:04:19.599Z,100.00
2023-05-12T06:06:47.670Z,100.00
2023-05-12T06:09:16.019Z,100.00
2023-05-12T06:11:43.449Z,100.00
2023-05-12T06:14:12.400Z,100.00
2023-05-12T06:16:39.965Z,100.00
2023-05-12T06:19:09.360Z,100.00
2023-05-12T06:21:38.875Z,100.00
2023-05-12T06:24:06.737Z,100.00
2023-05-12T06:26:34.863Z,100.00
2023-05-12T06:29:02.169Z,100.00
2023-05-12T06:31:31.419Z,100.00
2023-05-12T06:33:58.795Z,100.00
2023-05-12T06:36:26.348Z,100.00
2023-05-12T06:38:54.015Z,100.00
2023-05-12T06:41:22.092Z,100.00
2023-05-12T06:43:49.309Z,100.00
2023-05-12T06:46:16.633Z,100.00
2023-05-12T06:48:43.884Z,100.00
2023-05-12T06:51:11.242Z,100.00
2023-05-12T06:53:38.658Z,100.00
2023-05-12T06:56:06.209Z,100.00
2023-05-12T06:58:33.538Z,100.00
2023-05-12T07:01:01.076Z,100.00
2023-05-12T07:03:32.258Z,100.00
2023-05-12T07:05:59.602Z,100.00
2023-05-12T07:08:31.583Z,100.00
2023-05-12T07:11:03.112Z,100.00
2023-05-12T07:13:31.730Z,100.00
2023-05-12T07:16:00.252Z,100.00
2023-05-12T07:18:27.654Z,100.00
2023-05-12T07:20:55.758Z,100.00
2023-05-12T07:23:23.033Z,100.00
2023-05-12T07:25:50.234Z,100.00
2023-05-12T07:28:17.746Z,100.00
2023-05-12T07:30:44.981Z,100.00
2023-05-12T07:33:12.343Z,100.00
2023-05-12T07:35:39.777Z,100.00
2023-05-12T07:38:09.468Z,100.00
2023-05-12T07:40:36.843Z,100.00
2023-05-12T07:43:04.126Z,100.00
2023-05-12T07:45:31.353Z,100.00
2023-05-12T07:47:58.655Z,100.00
2023-05-12T07:50:26.411Z,100.00
2023-05-12T07:52:54.197Z,100.00
2023-05-12T07:55:23.020Z,100.00
2023-05-12T07:57:50.920Z,100.00
2023-05-12T08:00:19.065Z,100.00
2023-05-12T08:02:47.832Z,100.00
2023-05-12T08:05:15.621Z,100.00
2023-05-12T08:07:44.015Z,100.00
2023-05-12T08:10:13.144Z,100.00
2023-05-12T08:12:41.680Z,100.00
2023-05-12T08:15:09.902Z,100.00
2023-05-12T08:17:37.453Z,100.00
2023-05-12T08:20:05.284Z,100.00
2023-05-12T08:22:32.546Z,100.00
2023-05-12T08:24:59.790Z,100.00
2023-05-12T08:27:27.396Z,100.00
2023-05-12T08:29:56.855Z,100.00
2023-05-12T08:32:24.525Z,100.00
2023-05-12T08:34:52.141Z,100.00
2023-05-12T08:37:19.564Z,100.00
2023-05-12T08:39:46.842Z,100.00
2023-05-12T08:42:35.239Z,100.00
2023-05-12T08:45:03.845Z,100.00
2023-05-12T08:47:33.652Z,100.00
2023-05-12T08:50:03.538Z,100.00
2023-05-12T08:52:36.029Z,100.00
2023-05-12T08:55:05.107Z,100.00
2023-05-12T08:57:33.765Z,100.00
2023-05-12T09:00:04.815Z,100.00
2023-05-12T09:02:44.667Z,100.00
2023-05-12T09:05:16.072Z,100.00
2023-05-12T09:07:47.152Z,100.00
2023-05-12T09:10:32.802Z,100.00
2023-05-12T09:13:22.881Z,100.00
2023-05-12T09:15:53.876Z,100.00
2023-05-12T09:18:21.836Z,100.00
2023-05-12T09:20:49.446Z,100.00
2023-05-12T09:23:19.102Z,100.00
2023-05-12T09:25:49.675Z,100.00
2023-05-12T09:28:17.677Z,100.00
2023-05-12T09:30:44.867Z,100.00
2023-05-12T09:33:13.313Z,100.00
2023-05-12T09:35:45.035Z,100.00
2023-05-12T09:38:17.105Z,100.00
2023-05-12T09:40:45.589Z,100.00
2023-05-12T09:43:15.396Z,100.00
2023-05-12T09:45:44.388Z,100.00
2023-05-12T09:48:13.014Z,100.00
2023-05-12T09:50:47.658Z,100.00
2023-05-12T09:53:17.891Z,100.00
2023-05-12T09:55:46.758Z,100.00
2023-05-12T09:58:19.192Z,100.00
2023-05-12T10:03:18.759Z,100.00
2023-05-12T10:06:01.601Z,100.00
2023-05-12T10:08:42.384Z,100.00
2023-05-12T10:11:10.133Z,100.00
2023-05-12T10:13:38.522Z,100.00
2023-05-12T10:16:07.124Z,100.00
2023-05-12T10:18:35.152Z,100.00
2023-05-12T10:21:04.021Z,100.00
2023-05-12T10:23:31.858Z,100.00
2023-05-12T10:26:07.305Z,100.00
2023-05-12T10:28:34.601Z,100.00
2023-05-12T10:31:03.492Z,100.00
2023-05-12T10:33:31.161Z,100.00
2023-05-12T10:35:59.791Z,100.00
2023-05-12T10:38:27.236Z,100.00
2023-05-12T10:40:58.822Z,100.00
2023-05-12T10:43:38.651Z,100.00
2023-05-12T10:46:26.637Z,100.00
2023-05-12T10:49:06.063Z,100.00
2023-05-12T10:51:54.645Z,100.00
2023-05-12T10:54:25.463Z,100.00
2023-05-12T10:56:57.586Z,100.00
2023-05-12T10:59:27.169Z,100.00
2023-05-12T11:02:03.091Z,100.00
2023-05-12T11:04:37.609Z,100.00
2023-05-12T11:07:08.339Z,100.00
2023-05-12T11:09:44.619Z,100.00
2023-05-12T11:12:17.916Z,100.00
2023-05-12T11:14:47.379Z,100.00
2023-05-12T11:17:16.270Z,100.00
2023-05-12T11:19:51.302Z,100.00
2023-05-12T11:22:21.640Z,100.00
2023-05-12T11:24:49.781Z,100.00
2023-05-12T11:27:20.084Z,100.00
2023-05-12T11:29:56.212Z,100.00
2023-05-12T11:32:23.425Z,100.00
2023-05-12T11:34:51.125Z,100.00
2023-05-12T11:37:21.573Z,100.00
2023-05-12T11:39:49.463Z,100.00
2023-05-12T11:42:19.818Z,100.00
2023-05-12T11:44:49.589Z,100.00
2023-05-12T11:47:19.159Z,100.00
2023-05-12T11:49:48.954Z,100.00
2023-05-12T11:52:17.346Z,100.00
2023-05-12T11:55:00.354Z,100.00
2023-05-12T11:57:35.087Z,100.00
2023-05-12T12:00:06.943Z,100.00
2023-05-12T12:02:36.260Z,100.00
2023-05-12T12:05:04.168Z,100.00
2023-05-12T12:07:36.636Z,100.00
2023-05-12T12:10:17.233Z,100.00
2023-05-12T12:12:46.507Z,100.00
2023-05-12T12:15:13.824Z,100.00
2023-05-12T12:17:41.183Z,100.00
2023-05-12T12:20:14.471Z,100.00
2023-05-12T12:22:41.758Z,100.00
2023-05-12T12:25:11.109Z,100.00
2023-05-12T12:27:43.712Z,100.00
2023-05-12T12:30:11.897Z,100.00
2023-05-12T12:32:40.729Z,100.00
2023-05-12T12:35:09.224Z,100.00
2023-05-12T12:37:36.559Z,100.00
2023-05-12T12:40:08.549Z,100.00
2023-05-12T12:42:37.465Z,100.00
2023-05-12T12:45:08.425Z,100.00
2023-05-12T12:47:38.270Z,100.00
2023-05-12T12:50:10.889Z,100.00
2023-05-12T12:52:38.659Z,100.00
2023-05-12T12:55:07.296Z,100.00
2023-05-12T12:57:35.120Z,100.00
2023-05-12T13:00:04.633Z,100.00
2023-05-12T13:02:32.233Z,100.00
2023-05-12T13:05:04.168Z,100.00
2023-05-12T13:07:32.166Z,100.00
2023-05-12T13:09:59.434Z,100.00
2023-05-12T13:12:26.829Z,100.00
2023-05-12T13:14:54.271Z,100.00
2023-05-12T13:17:21.527Z,100.00
2023-05-12T13:19:48.782Z,100.00
2023-05-12T13:22:16.508Z,100.00
2023-05-12T13:24:45.465Z,100.00
2023-05-12T13:27:12.773Z,100.00
2023-05-12T13:29:42.127Z,100.00
2023-05-12T13:32:09.510Z,100.00
2023-05-12T13:34:36.765Z,92.98
2023-05-12T13:37:04.502Z,83.13
2023-05-12T13:39:32.073Z,77.14
2023-05-12T13:41:59.898Z,86.57
2023-05-12T13:44:27.596Z,90.07
2023-05-12T13:46:54.798Z,91.10
2023-05-12T13:49:23.076Z,84.17
2023-05-12T13:51:51.892Z,82.10
2023-05-12T13:54:19.255Z,89.62
2023-05-12T13:56:46.500Z,88.39
2023-05-12T13:59:13.822Z,88.81
2023-05-12T14:01:41.257Z,90.90
2023-05-12T14:04:08.728Z,92.10
2023-05-12T14:06:36.539Z,91.54
2023-05-12T14:09:07.523Z,88.05
2023-05-12T14:11:35.469Z,89.33
2023-05-12T14:14:03.643Z,89.07
2023-05-12T14:16:31.519Z,89.14
2023-05-12T14:19:00.452Z,85.63
2023-05-12T14:21:28.029Z,87.00
2023-05-12T14:23:57.222Z,87.31
2023-05-12T14:26:26.135Z,89.94
2023-05-12T14:28:53.537Z,87.91
2023-05-12T14:31:22.345Z,89.78
2023-05-12T14:33:49.714Z,89.27
2023-05-12T14:36:17.054Z,88.91
2023-05-12T14:38:44.658Z,89.20
2023-05-12T14:41:12.009Z,89.59
2023-05-12T14:43:39.420Z,91.35
2023-05-12T14:46:09.027Z,91.70
2023-05-12T14:48:36.391Z,92.26
2023-05-12T14:51:05.061Z,93.98
2023-05-12T14:53:32.725Z,98.36
2023-05-12T14:56:01.384Z,99.75
2023-05-12T14:58:28.725Z,100.00
2023-05-12T15:00:56.240Z,100.00
2023-05-12T15:03:24.193Z,100.00
2023-05-12T15:08:21.899Z,100.00
2023-05-12T15:10:49.882Z,100.00
2023-05-12T15:13:20.369Z,100.00
2023-05-12T15:15:47.856Z,100.00
2023-05-12T15:18:15.642Z,100.00
2023-05-12T15:20:46.225Z,100.00
2023-05-12T15:23:13.731Z,100.00
2023-05-12T15:25:42.085Z,100.00
2023-05-12T15:28:10.005Z,100.00
2023-05-12T15:30:37.888Z,100.00
2023-05-12T15:33:08.494Z,100.00
2023-05-12T15:35:36.163Z,100.00
2023-05-12T15:38:06.123Z,100.00
2023-05-12T15:40:34.636Z,100.00
2023-05-12T15:43:03.440Z,100.00
2023-05-12T15:45:31.513Z,100.00
2023-05-12T15:47:59.200Z,100.00
2023-05-12T15:50:26.737Z,100.00
2023-05-12T15:52:54.074Z,100.00
2023-05-12T15:55:21.622Z,100.00
2023-05-12T15:57:50.159Z,100.00
2023-05-12T16:00:17.895Z,100.00
2023-05-12T16:02:47.920Z,100.00
2023-05-12T16:05:15.348Z,100.00
2023-05-12T16:07:43.328Z,100.00
2023-05-12T16:10:11.914Z,100.00
2023-05-12T16:12:40.265Z,100.00
2023-05-12T16:15:08.654Z,100.00
2023-05-12T16:17:36.269Z,100.00
2023-05-12T16:20:05.309Z,100.00
2023-05-12T16:22:32.558Z,100.00
2023-05-12T16:24:59.928Z,100.00
2023-05-12T16:27:27.307Z,100.00
2023-05-12T16:29:55.788Z,100.00
2023-05-12T16:32:23.621Z,100.00
2023-05-12T16:34:51.402Z,100.00
2023-05-12T16:37:18.769Z,100.00
2023-05-12T16:39:46.085Z,100.00
2023-05-12T16:42:13.452Z,100.00
2023-05-12T16:44:40.775Z,100.00
2023-05-12T16:47:09.560Z,100.00
2023-05-12T16:49:36.911Z,100.00
2023-05-12T16:52:06.012Z,100.00
2023-05-12T16:54:33.376Z,100.00
2023-05-12T16:57:04.945Z,100.00
2023-05-12T16:59:36.330Z,100.00
2023-05-12T17:02:05.166Z,100.00
2023-05-12T17:04:32.743Z,100.00
2023-05-12T17:07:01.569Z,100.00
2023-05-12T17:09:28.915Z,100.00
2023-05-12T17:11:56.520Z,100.00
2023-05-12T17:14:23.834Z,100.00
2023-05-12T17:16:51.638Z,100.00
2023-05-12T17:19:19.016Z,100.00
2023-05-12T17:21:46.631Z,100.00
2023-05-12T17:24:14.498Z,100.00
2023-05-12T17:26:42.304Z,100.00
2023-05-12T17:29:09.822Z,100.00
2023-05-12T17:31:37.742Z,100.00
2023-05-12T17:34:06.033Z,100.00
2023-05-12T17:36:33.383Z,100.00
2023-05-12T17:39:00.909Z,100.00
2023-05-12T17:41:29.314Z,100.00
2023-05-12T17:43:56.906Z,100.00
2023-05-12T17:46:24.609Z,100.00
2023-05-12T17:48:52.320Z,100.00
2023-05-12T17:51:20.056Z,100.00
2023-05-12T17:53:47.327Z,100.00
2023-05-12T17:56:14.577Z,98.58
2023-05-12T17:58:42.842Z,98.48
2023-05-12T18:01:10.492Z,99.18
2023-05-12T18:03:38.100Z,96.75
2023-05-12T18:06:05.846Z,95.50
2023-05-12T18:08:33.155Z,93.55
2023-05-12T18:11:00.642Z,91.38
2023-05-12T18:13:28.106Z,89.65
2023-05-12T18:15:55.518Z,87.79
2023-05-12T18:18:22.836Z,86.57
2023-05-12T18:20:50.914Z,85.23
2023-05-12T18:23:18.452Z,84.31
2023-05-12T18:25:47.467Z,83.27
2023-05-12T18:28:15.113Z,82.33
2023-05-12T18:30:42.749Z,82.00
2023-05-12T18:33:10.752Z,80.25
2023-05-12T18:35:38.190Z,79.60
2023-05-12T18:38:05.723Z,80.75
2023-05-12T18:40:33.032Z,82.00
2023-05-12T18:43:02.878Z,83.21
2023-05-12T18:45:32.742Z,82.53
2023-05-12T18:48:00.832Z,82.85
2023-05-12T18:50:28.251Z,82.84
2023-05-12T18:52:55.895Z,84.91
2023-05-12T18:55:23.988Z,86.28
2023-05-12T18:57:51.389Z,86.76
2023-05-12T19:00:23.559Z,86.93
2023-05-12T19:02:53.505Z,87.88
2023-05-12T19:05:21.277Z,87.85
2023-05-12T19:07:48.819Z,87.18
2023-05-12T19:10:16.443Z,87.57
2023-05-12T19:12:48.219Z,86.70
2023-05-12T19:15:16.328Z,87.40
2023-05-12T19:17:43.910Z,86.30
2023-05-12T19:20:12.046Z,87.21
2023-05-12T19:22:39.341Z,87.34
2023-05-12T19:25:07.138Z,87.42
2023-05-12T19:27:34.606Z,87.11
2023-05-12T19:30:02.665Z,86.76
2023-05-12T19:32:31.525Z,86.41
2023-05-12T19:35:00.222Z,87.68
2023-05-12T19:37:27.951Z,88.70
2023-05-12T19:39:55.720Z,88.80
2023-05-12T19:42:23.612Z,89.10
2023-05-12T19:44:51.307Z,89.87
2023-05-12T19:47:19.375Z,89.89
2023-05-12T19:49:47.291Z,90.95
2023-05-12T19:52:14.724Z,91.71
2023-05-12T19:54:43.309Z,92.43
2023-05-12T19:57:10.826Z,92.89
2023-05-12T19:59:41.380Z,94.81
2023-05-12T20:02:12.957Z,95.35
2023-05-12T20:04:41.189Z,95.90
2023-05-12T20:07:08.719Z,95.16
2023-05-12T20:09:37.036Z,95.56
2023-05-12T20:12:07.795Z,96.12
2023-05-12T20:14:36.486Z,96.12
2023-05-12T20:17:07.442Z,96.40
2023-05-12T20:19:38.642Z,96.77
2023-05-12T20:22:06.603Z,96.62
2023-05-12T20:24:34.096Z,97.47
2023-05-12T20:27:03.721Z,98.09
2023-05-12T20:29:34.721Z,99.72
2023-05-12T20:32:05.496Z,100.00
2023-05-12T20:34:33.587Z,100.00
2023-05-12T20:37:01.219Z,100.00
2023-05-12T20:39:29.832Z,100.00
2023-05-12T20:41:57.598Z,100.00
2023-05-12T20:44:26.532Z,100.00
2023-05-12T20:46:54.617Z,100.00
2023-05-12T20:49:22.008Z,100.00
2023-05-12T20:51:49.462Z,100.00
2023-05-12T20:54:17.059Z,100.00
2023-05-12T20:56:44.671Z,100.00
2023-05-12T20:59:12.461Z,100.00
2023-05-12T21:01:39.746Z,100.00
2023-05-12T21:04:07.475Z,100.00
2023-05-12T21:06:36.197Z,100.00
2023-05-12T21:09:05.207Z,100.00
2023-05-12T21:11:32.762Z,100.00
2023-05-12T21:14:00.561Z,100.00
2023-05-12T21:16:29.044Z,100.00
2023-05-12T21:18:57.063Z,100.00
2023-05-12T21:21:24.522Z,100.00
2023-05-12T21:23:51.889Z,100.00
2023-05-12T21:26:19.625Z,100.00
2023-05-12T21:28:47.157Z,100.00
2023-05-12T21:31:14.438Z,100.00
2023-05-12T21:33:42.405Z,100.00
2023-05-12T21:36:09.769Z,100.00
2023-05-12T21:38:37.031Z,100.00
2023-05-12T21:41:04.403Z,100.00
2023-05-12T21:43:31.672Z,100.00
2023-05-12T21:46:03.441Z,100.00
2023-05-12T21:48:32.082Z,100.00
2023-05-12T21:51:02.252Z,100.00
2023-05-12T21:53:29.846Z,100.00
2023-05-12T21:55:57.135Z,100.00
2023-05-12T21:58:27.076Z,100.00
2023-05-12T22:00:54.477Z,100.00
2023-05-12T22:03:22.900Z,100.00
2023-05-12T22:05:50.596Z,100.00
2023-05-12T22:08:19.444Z,100.00
2023-05-12T22:10:47.166Z,100.00
2023-05-12T22:13:15.655Z,100.00
2023-05-12T22:15:43.423Z,100.00
2023-05-12T22:18:10.968Z,100.00
2023-05-12T22:20:38.352Z,100.00
2023-05-12T22:23:06.251Z,100.00
2023-05-12T22:25:33.556Z,100.00
2023-05-12T22:28:00.844Z,100.00
2023-05-12T22:30:28.092Z,100.00
2023-05-12T22:32:55.572Z,100.00
2023-05-12T22:35:22.921Z,100.00
2023-05-12T22:37:50.390Z,100.00
2023-05-12T22:40:18.183Z,100.00
2023-05-12T22:42:46.836Z,100.00
2023-05-12T22:45:14.147Z,100.00
2023-05-12T22:47:41.867Z,100.00
2023-05-12T22:50:10.683Z,100.00
2023-05-12T22:52:38.272Z,100.00
2023-05-12T22:55:06.007Z,100.00
2023-05-12T22:57:33.312Z,100.00
2023-05-12T23:00:00.856Z,100.00
2023-05-12T23:02:28.415Z,100.00
2023-05-12T23:04:55.923Z,100.00
2023-05-12T23:07:23.574Z,100.00
2023-05-12T23:09:52.449Z,100.00
2023-05-12T23:12:21.071Z,100.00
2023-05-12T23:14:48.472Z,100.00
2023-05-12T23:17:16.055Z,100.00
2023-05-12T23:19:43.499Z,100.00
2023-05-12T23:22:10.834Z,100.00
2023-05-12T23:24:38.285Z,100.00
2023-05-12T23:27:06.005Z,100.00
2023-05-12T23:29:34.744Z,100.00
2023-05-12T23:32:02.643Z,100.00
2023-05-12T23:34:33.363Z,100.00
2023-05-12T23:37:00.757Z,100.00
2023-05-12T23:39:27.949Z,100.00
2023-05-12T23:41:55.368Z,100.00
2023-05-12T23:44:22.832Z,100.00
2023-05-12T23:46:50.507Z,100.00
2023-05-12T23:49:18.011Z,100.00
2023-05-12T23:51:46.298Z,100.00
2023-05-12T23:54:13.557Z,100.00
2023-05-12T23:56:42.193Z,100.00
2023-05-12T23:59:09.590Z,100.00
